WEATHER DATA

YESTERDAY
Time Temp. Dewp. Hum. Wind dir Wind speed Wind gust Bar. 1h Prec. 24h Prec.
00:02 13.5 8.1 70 0 0.8 1017 0.0000 0.0000
00:23 13 8.1 72 0 0.8 1017.1 0.0000 0.0000
00:32 12.9 8 72 0 0.3 1017 0.0000 0.0000
00:43 12.7 8 73 0 0.3 1016.9 0.0000 0.0000
00:53 12.4 7.7 73 270 0.3 0.8 1017 0.0000 0.0000
01:03 12.1 7.6 74 0 0.8 1017 0.0000 0.0000
01:13 12.1 7.8 75 0 0.8 1016.9 0.0000 0.0000
01:23 11.9 7.6 75 0 0.3 1016.9 0.0000 0.0000
01:33 11.8 7.5 75 0 0.3 1016.9 0.0000 0.0000
01:43 11.6 7.5 76 0 0.3 1016.9 0.0000 0.0000
01:53 11.4 7.3 76 0 0.8 1016.9 0.0000 0.0000
02:03 11.2 7.1 76 0 0.3 1016.4 0.0000 0.0000
02:13 11.1 7.2 77 0 0.3 1016.2 0.0000 0.0000
02:23 10.9 7 77 0 0.8 1016.5 0.0000 0.0000
02:34 10.8 6.9 77 0 0.8 1016.4 0.0000 0.0000
02:43 10.7 7 78 0 0.8 1016.1 0.0000 0.0000
02:53 10.5 6.8 78 0 0.3 1016.2 0.0000 0.0000
03:04 10.4 6.9 79 0 0.3 1016.2 0.0000 0.0000
03:14 10.3 6.8 79 0 0.3 1016.1 0.0000 0.0000
03:24 10.1 6.6 79 0 0.8 1016.1 0.0000 0.0000
03:33 10 6.7 80 0 0.3 1016 0.0000 0.0000
03:44 9.8 6.5 80 0 0.3 1015.9 0.0000 0.0000
03:54 9.8 6.7 81 0 0.3 1015.9 0.0000 0.0000
04:04 9.7 6.6 81 0 0.8 1015.8 0.0000 0.0000
04:14 9.5 6.4 81 0 0.8 1015.8 0.0000 0.0000
04:24 9.4 6.3 81 0 0.3 1015.8 0.0000 0.0000
04:34 9.3 6.2 81 0 0.8 1015.7 0.0000 0.0000
04:44 9.2 6.1 81 0 0.3 1015.7 0.0000 0.0000
04:55 9 6.1 82 0 0.8 1015.8 0.0000 0.0000
05:04 8.9 6 82 0 0.8 1015.8 0.0000 0.0000
05:14 8.9 6 82 0 0.3 1015.6 0.0000 0.0000
05:25 8.8 5.9 82 0 0.3 1015.8 0.0000 0.0000
05:35 8.7 6 83 0 1.1 1016 0.0000 0.0000
05:44 8.7 6 83 0 0.8 1015.7 0.0000 0.0000
05:54 8.6 5.9 83 0 0.3 1015.7 0.0000 0.0000
06:05 8.5 6 84 0 0.3 1015.7 0.0000 0.0000
06:15 8.5 6 84 0 0.3 1015.9 0.0000 0.0000
06:25 8.6 6.2 85 0 0.3 1015.7 0.0000 0.0000
06:35 8.8 6.4 85 0 0.3 1015.7 0.0000 0.0000
06:45 9.3 7.1 86 0 0.8 1015.8 0.0000 0.0000
06:55 10 7.9 87 0 0.8 1015.8 0.0000 0.0000
07:05 10.6 8.5 87 225 0.3 1.1 1015.7 0.0000 0.0000
07:16 11.2 9.1 87 206 0.3 1.4 1015.7 0.0000 0.0000
07:25 11.7 9.3 85 238 1.1 2.5 1015.6 0.0000 0.0000
07:35 12.1 9.5 84 231 0.8 2.5 1015.7 0.0000 0.0000
07:45 12.4 9.4 82 227 0.8 2.2 1015.8 0.0000 0.0000
07:56 12.9 9.7 81 225 0.8 1.9 1016 0.0000 0.0000
08:06 13.4 9.8 79 219 1.4 3.3 1015.8 0.0000 0.0000
08:16 13.8 9.8 77 223 1.1 2.5 1015.7 0.0000 0.0000
08:26 14.2 10 76 225 0.8 3.1 1015.5 0.0000 0.0000
08:36 14.6 10.2 75 225 1.1 3.1 1015.6 0.0000 0.0000
08:46 15.1 10.1 72 227 1.1 3.1 1015.5 0.0000 0.0000
08:56 15.5 10.3 71 234 1.1 3.3 1015.6 0.0000 0.0000
09:07 16 10.3 69 225 1.4 3.3 1015.3 0.0000 0.0000
09:16 16.4 10.3 67 223 1.1 4.7 1015.1 0.0000 0.0000
09:26 16.8 10.4 66 218 1.1 3.1 1015 0.0000 0.0000
09:37 17.4 10.3 63 221 1.9 4.2 1015.1 0.0000 0.0000
09:47 17.7 10.3 62 225 1.1 3.3 1015 0.0000 0.0000
09:57 18.1 10.5 61 215 1.1 4.4 1015 0.0000 0.0000
10:06 18.5 10.8 61 217 0.8 1.9 1015.1 0.0000 0.0000
10:17 18.9 10.7 59 226 1.4 3.3 1014.7 0.0000 0.0000
10:27 19.2 10.5 57 222 1.4 4.4 1015 0.0000 0.0000
10:37 19.4 10.7 57 232 1.1 3.3 1014.8 0.0000 0.0000
10:47 19.7 10.4 55 228 1.9 5.3 1014.8 0.0000 0.0000
10:57 19.9 11.1 57 218 1.4 4.2 1014.7 0.0000 0.0000
11:07 20.1 10.5 54 229 2.2 6.4 1014.6 0.0000 0.0000
11:17 20.2 11.2 56 231 1.4 3.6 1014.6 0.0000 0.0000
11:28 20.5 11.2 55 219 1.4 4.7 1014.4 0.0000 0.0000
11:38 20.8 11.2 54 229 1.4 3.6 1014.3 0.0000 0.0000
11:48 20.9 11.3 54 212 1.9 4.7 1014.2 0.0000 0.0000
11:58 21.2 11.5 54 226 1.1 3.6 1014.2 0.0000 0.0000
12:08 21.8 11.8 53 213 1.4 4.4 1013.9 0.0000 0.0000
12:18 21.8 11.5 52 220 1.1 3.1 1013.9 0.0000 0.0000
12:28 21.9 11.3 51 212 1.4 4.2 1014 0.0000 0.0000
12:39 21.9 11.6 52 218 1.4 3.1 1013.9 0.0000 0.0000
12:48 21.8 11.5 52 219 1.1 3.3 1013.6 0.0000 0.0000
12:58 21.9 11.3 51 270 1.4 4.2 1013.6 0.0000 0.0000
13:08 22.1 11.5 51 231 1.9 5.6 1013.6 0.0000 0.0000
13:19 22 11.4 51 234 1.9 5.3 1013.7 0.0000 0.0000
13:29 21.9 11.6 52 234 1.1 3.6 1013.7 0.0000 0.0000
13:38 21.9 11.9 53 326 1.1 4.2 1013.6 0.0000 0.0000
13:55 21.6 11.9 54 296 1.1 6.4 1013.8 0.0000 0.0000
14:05 21.8 12.4 55 315 1.1 3.1 1013.6 0.0000 0.0000
14:15 22.1 12.1 53 317 1.9 5.3 1013.7 0.0000 0.0000
14:25 22.3 12 52 316 1.4 5.3 1013.5 0.0000 0.0000
14:35 22.5 12.5 53 311 1.4 4.2 1013.6 0.0000 0.0000
14:45 22.6 12.8 54 251 1.1 3.3 1013.5 0.0000 0.0000
14:55 22.4 12.4 53 326 1.4 4.2 1013.8 0.0000 0.0000
15:05 22.5 12.2 52 307 1.9 5.6 1013.8 0.0000 0.0000
15:16 22.4 12.4 53 283 1.4 4.7 1013.9 0.0000 0.0000
15:26 22.3 12.3 53 313 1.4 4.7 1013.7 0.0000 0.0000
15:35 22.4 11.5 50 316 1.4 4.7 1013.9 0.0000 0.0000
15:46 21.8 10.9 50 318 1.9 4.2 1013.9 0.0000 0.0000
15:56 21.7 10.5 49 315 1.4 5.8 1013.9 0.0000 0.0000
16:06 21.4 10.6 50 315 1.4 5.3 1014 0.0000 0.0000
16:16 21.3 9.9 48 308 1.9 4.2 1014 0.0000 0.0000
16:26 21.3 9.9 48 323 1.4 3.6 1014 0.0000 0.0000
16:36 21.2 9.5 47 310 1.9 5.8 1014.1 0.0000 0.0000
16:46 21.3 8.9 45 257 1.4 4.7 1014.3 0.0000 0.0000
16:57 21 7.6 42 321 1.4 4.4 1014.1 0.0000 0.0000
17:07 20.6 7.6 43 318 1.9 4.2 1014.1 0.0000 0.0000
17:16 20.5 8.2 45 298 1.4 3.6 1014 0.0000 0.0000
17:18 20.5 8.2 45 308 1.9 7.8 1013.9 0.0000 0.0000
17:28 20.3 8.6 47 311 1.4 3.3 1014 0.0000 0.0000
17:38 20.1 9.1 49 326 1.4 4.4 1014.1 0.0000 0.0000
17:49 20 9.3 50 315 1.1 3.1 1014.1 0.0000 0.0000
17:59 19.4 9.3 52 308 0.8 2.2 1014.2 0.0000 0.0000
18:08 19.3 9.2 52 294 1.1 3.3 1014.1 0.0000 0.0000
18:19 18.7 9.2 54 299 1.1 4.2 1014.3 0.0000 0.0000
18:30 18.5 9.6 56 306 1.1 7.8 1014.5 0.0000 0.0000
18:40 17.7 9.1 57 315 1.4 5.6 1014.4 0.0000 0.0000
18:50 17.4 9.6 60 315 1.1 3.1 1014.3 0.0000 0.0000
19:00 17 9.7 62 312 1.1 3.3 1014.5 0.0000 0.0000
19:10 16.8 9.7 63 270 0.8 2.2 1014.4 0.0000 0.0000
19:20 16.6 9.5 63 316 1.4 5.3 1014.6 0.0000 0.0000
19:30 16.1 9.8 66 318 1.4 4.7 1014.4 0.0000 0.0000
19:41 15.6 9.5 67 305 1.4 5.3 1014.5 0.0000 0.0000
19:51 15.2 9.1 67 322 1.4 4.2 1014.6 0.0000 0.0000
20:00 15 9.1 68 270 0.8 3.1 1014.5 0.0000 0.0000
20:10 14.7 8.6 67 315 1.1 3.3 1014.8 0.0000 0.0000
20:21 14.5 8.7 68 315 0.8 2.5 1015.1 0.0000 0.0000
20:31 14.4 8.8 69 315 0.8 1.9 1015.2 0.0000 0.0000
20:41 14.2 8.6 69 315 0.8 2.2 1015.4 0.0000 0.0000
20:51 14 8.6 70 315 1.1 4.2 1015.4 0.0000 0.0000
21:01 13.9 8.5 70 315 0.8 1.9 1015.4 0.0000 0.0000
21:11 13.7 8.7 72 317 0.8 2.5 1015.5 0.0000 0.0000
21:21 13.5 8.6 72 301 1.1 2.5 1015.4 0.0000 0.0000
21:32 13.3 8.4 72 303 0.8 3.3 1015.5 0.0000 0.0000
21:41 13.3 8.6 73 308 0.8 3.1 1015.3 0.0000 0.0000
21:51 13.1 8.4 73 324 1.1 2.5 1015.2 0.0000 0.0000
22:02 13.1 8.6 74 315 0.8 2.2 1015.1 0.0000 0.0000
22:12 13 8.7 75 306 0.8 2.5 1015.3 0.0000 0.0000
22:22 13 8.7 75 319 0.8 3.1 1015.1 0.0000 0.0000
22:32 12.9 8.6 75 303 0.8 3.1 1015.3 0.0000 0.0000
22:42 12.9 8.6 75 321 0.8 2.2 1015.1 0.0000 0.0000
22:49 12.8 8.7 76 300 0.8 5.3 1015.4 0.0000 0.0000
23:00 12.7 8.6 76 319 1.1 3.3 1015.3 0.0000 0.0000
23:10 12.6 8.5 76 315 0.8 3.6 1015.2 0.0000 0.0000
23:19 12.5 8.6 77 303 0.8 2.2 1015.4 0.0000 0.0000
23:30 12.4 8.5 77 315 1.1 3.6 1015.5 0.0000 0.0000
23:40 12.3 8.6 78 270 0.3 1.4 1015.5 0.0000 0.0000
23:50 12.3 8.6 78 299 1.1 2.5 1015.4 0.0000 0.0000

DAY STATISTIC

2019-05-24
TEMPERATURE
AVERAGE
15.5
HIGH
22.6
14:45
LOW
8.5
06:05
PRESSURE
AVERAGE
1015.1
HIGH
1017.1
00:23
LOW
1013.5
14:25
DEWPOINT
AVERAGE
9.1
HIGH
12.8
14:45
LOW
5.9
05:25
HUMIDITY
AVERAGE
67
HIGH
87
06:55
LOW
42
16:57
WIND SPEED
AVERAGE
0.9
HIGH
2.2
11:07
WIND GUST
AVERAGE
2.8
HIGH
7.8
17:18
WIND DIRECTION
PREVAILING
NW
39.4%
N
0.0
NE
0.0
E
0.0
SE
0.0
S
0.0
SW
26.8
W
5.6
NW
39.4
PRECIPITATION
RAIN HOUR
0.0
RAIN DAY
0.0
TEMPERATURE (°C)
LOW
8.5
HIGH
22.6
AVERAGE
15.5
PRESSURE (hpa)
LOW
1013.5
HIGH
1017.1
AVERAGE
1015.1
DEVICE